Canso, Canada
Current Conditions -  °F | °C
As of 2:00 AM on Sunday 21 Dec 2014 (Local Time) from CYPD Reporting Station
Overcast Overcast  
Wind Chill: -1°   Ceiling: 2500
Heat Index: -1°   Visibility: 9mi
Dew Point: -4°   Wind: 3mph
Humidity: 80%   Direction: 360°N
Pressure: 30.28"   Gusts: NA
Location:  45.34°N, 61°W
Report Text: CYPD 210600Z AUTO 36003KT 330V050 9SM OVC025 M01/M04 A3028 RMK SLP259
Loading
Personal Weather Stations






























Interactive Weather Map New forecast layout! Learn more

10-Day Weather Forecast

Advertisements
Track Severe Weather on mobile